sensor_id;sensor_type;location;lat;lon;timestamp;temperature;humidity
9125;DHT22;4597;48.730;9.114;2022-10-16T00:00:44;15.00;99.90
9125;DHT22;4597;48.730;9.114;2022-10-16T00:03:10;15.00;99.90
9125;DHT22;4597;48.730;9.114;2022-10-16T00:05:41;15.00;99.90
9125;DHT22;4597;48.730;9.114;2022-10-16T00:08:07;15.00;99.90
9125;DHT22;4597;48.730;9.114;2022-10-16T00:10:34;15.00;99.90
9125;DHT22;4597;48.730;9.114;2022-10-16T00:12:59;14.90;99.90
9125;DHT22;4597;48.730;9.114;2022-10-16T00:15:25;15.00;99.90
9125;DHT22;4597;48.730;9.114;2022-10-16T00:17:50;15.00;99.90
9125;DHT22;4597;48.730;9.114;2022-10-16T00:20:16;15.00;99.90
9125;DHT22;4597;48.730;9.114;2022-10-16T00:22:41;15.00;99.90
9125;DHT22;4597;48.730;9.114;2022-10-16T00:25:07;15.00;99.90
9125;DHT22;4597;48.730;9.114;2022-10-16T00:27:33;15.00;99.90
9125;DHT22;4597;48.730;9.114;2022-10-16T00:29:59;15.10;99.90
9125;DHT22;4597;48.730;9.114;2022-10-16T00:32:24;15.10;99.90
9125;DHT22;4597;48.730;9.114;2022-10-16T00:34:50;15.10;99.90
9125;DHT22;4597;48.730;9.114;2022-10-16T00:37:15;15.10;99.90
9125;DHT22;4597;48.730;9.114;2022-10-16T00:39:41;15.10;99.90
9125;DHT22;4597;48.730;9.114;2022-10-16T00:42:09;15.20;99.90
9125;DHT22;4597;48.730;9.114;2022-10-16T00:44:55;15.20;99.90
9125;DHT22;4597;48.730;9.114;2022-10-16T00:47:31;15.20;99.90
9125;DHT22;4597;48.730;9.114;2022-10-16T00:50:31;15.20;99.90
9125;DHT22;4597;48.730;9.114;2022-10-16T00:52:59;15.20;99.90
9125;DHT22;4597;48.730;9.114;2022-10-16T00:55:26;15.10;99.90
9125;DHT22;4597;48.730;9.114;2022-10-16T00:57:54;15.20;99.90
9125;DHT22;4597;48.730;9.114;2022-10-16T01:00:26;15.20;99.90
9125;DHT22;4597;48.730;9.114;2022-10-16T01:02:57;15.20;99.90
9125;DHT22;4597;48.730;9.114;2022-10-16T01:05:30;15.20;99.90
9125;DHT22;4597;48.730;9.114;2022-10-16T01:08:18;15.20;99.90
9125;DHT22;4597;48.730;9.114;2022-10-16T01:10:54;15.20;99.90
9125;DHT22;4597;48.730;9.114;2022-10-16T01:13:30;15.20;99.90
9125;DHT22;4597;48.730;9.114;2022-10-16T01:18:54;15.10;99.90
9125;DHT22;4597;48.730;9.114;2022-10-16T01:21:32;15.10;99.90
9125;DHT22;4597;48.730;9.114;2022-10-16T01:26:41;15.10;99.90
9125;DHT22;4597;48.730;9.114;2022-10-16T01:29:16;15.20;99.90
9125;DHT22;4597;48.730;9.114;2022-10-16T01:31:49;15.20;99.90
9125;DHT22;4597;48.730;9.114;2022-10-16T01:34:52;15.20;99.90
9125;DHT22;4597;48.730;9.114;2022-10-16T01:37:29;15.20;99.90
9125;DHT22;4597;48.730;9.114;2022-10-16T01:39:58;15.20;99.90
9125;DHT22;4597;48.730;9.114;2022-10-16T01:42:29;15.30;99.90
9125;DHT22;4597;48.730;9.114;2022-10-16T01:44:57;15.30;99.90
9125;DHT22;4597;48.730;9.114;2022-10-16T01:47:25;15.30;99.90
9125;DHT22;4597;48.730;9.114;2022-10-16T01:49:52;15.30;99.90
9125;DHT22;4597;48.730;9.114;2022-10-16T01:52:21;15.40;99.90
9125;DHT22;4597;48.730;9.114;2022-10-16T01:54:50;15.40;99.90
9125;DHT22;4597;48.730;9.114;2022-10-16T01:57:18;15.40;99.90
9125;DHT22;4597;48.730;9.114;2022-10-16T01:59:48;15.40;99.90
9125;DHT22;4597;48.730;9.114;2022-10-16T02:02:17;15.40;99.90
9125;DHT22;4597;48.730;9.114;2022-10-16T02:04:49;15.40;99.90
9125;DHT22;4597;48.730;9.114;2022-10-16T02:07:18;15.40;99.90
9125;DHT22;4597;48.730;9.114;2022-10-16T02:09:44;15.40;99.90
9125;DHT22;4597;48.730;9.114;2022-10-16T02:12:28;15.40;99.90
9125;DHT22;4597;48.730;9.114;2022-10-16T02:14:55;15.40;99.90
9125;DHT22;4597;48.730;9.114;2022-10-16T02:17:22;15.40;99.90
9125;DHT22;4597;48.730;9.114;2022-10-16T02:19:50;15.40;99.90
9125;DHT22;4597;48.730;9.114;2022-10-16T02:22:23;15.30;99.90
9125;DHT22;4597;48.730;9.114;2022-10-16T02:24:59;15.30;99.90
9125;DHT22;4597;48.730;9.114;2022-10-16T02:27:33;15.30;99.90
9125;DHT22;4597;48.730;9.114;2022-10-16T02:30:18;15.20;99.90
9125;DHT22;4597;48.730;9.114;2022-10-16T02:32:46;15.20;99.90
9125;DHT22;4597;48.730;9.114;2022-10-16T02:35:17;15.20;99.90
9125;DHT22;4597;48.730;9.114;2022-10-16T02:37:44;15.20;99.90
9125;DHT22;4597;48.730;9.114;2022-10-16T02:40:11;15.20;99.90
9125;DHT22;4597;48.730;9.114;2022-10-16T02:42:39;15.20;99.90
9125;DHT22;4597;48.730;9.114;2022-10-16T02:45:09;15.20;99.90
9125;DHT22;4597;48.730;9.114;2022-10-16T02:47:35;15.20;99.90
9125;DHT22;4597;48.730;9.114;2022-10-16T02:50:01;15.20;99.90
9125;DHT22;4597;48.730;9.114;2022-10-16T02:52:26;15.20;99.90
9125;DHT22;4597;48.730;9.114;2022-10-16T02:54:52;15.20;99.90
9125;DHT22;4597;48.730;9.114;2022-10-16T02:57:18;15.20;99.90
9125;DHT22;4597;48.730;9.114;2022-10-16T02:59:44;15.10;99.90
9125;DHT22;4597;48.730;9.114;2022-10-16T03:02:10;15.10;99.90
9125;DHT22;4597;48.730;9.114;2022-10-16T03:04:35;15.10;99.90
9125;DHT22;4597;48.730;9.114;2022-10-16T03:07:01;15.10;99.90
9125;DHT22;4597;48.730;9.114;2022-10-16T03:09:27;15.10;99.90
9125;DHT22;4597;48.730;9.114;2022-10-16T03:11:52;15.10;99.90
9125;DHT22;4597;48.730;9.114;2022-10-16T03:14:18;15.10;99.90
9125;DHT22;4597;48.730;9.114;2022-10-16T03:16:43;15.10;99.90
9125;DHT22;4597;48.730;9.114;2022-10-16T03:19:09;15.10;99.90
9125;DHT22;4597;48.730;9.114;2022-10-16T03:21:34;15.00;99.90
9125;DHT22;4597;48.730;9.114;2022-10-16T03:24:00;15.00;99.90
9125;DHT22;4597;48.730;9.114;2022-10-16T03:26:25;15.10;99.90
9125;DHT22;4597;48.730;9.114;2022-10-16T03:28:51;15.10;99.90
9125;DHT22;4597;48.730;9.114;2022-10-16T03:31:17;15.10;99.90
9125;DHT22;4597;48.730;9.114;2022-10-16T03:33:42;15.00;99.90
9125;DHT22;4597;48.730;9.114;2022-10-16T03:36:08;15.00;99.90
9125;DHT22;4597;48.730;9.114;2022-10-16T03:38:33;15.00;99.90
9125;DHT22;4597;48.730;9.114;2022-10-16T03:40:59;15.00;99.90
9125;DHT22;4597;48.730;9.114;2022-10-16T03:43:24;14.90;99.90
9125;DHT22;4597;48.730;9.114;2022-10-16T03:45:50;14.90;99.90
9125;DHT22;4597;48.730;9.114;2022-10-16T03:48:17;14.90;99.90
9125;DHT22;4597;48.730;9.114;2022-10-16T03:50:42;14.90;99.90
9125;DHT22;4597;48.730;9.114;2022-10-16T03:53:08;14.90;99.90
9125;DHT22;4597;48.730;9.114;2022-10-16T03:55:34;14.90;99.90
9125;DHT22;4597;48.730;9.114;2022-10-16T03:58:00;14.80;99.90
9125;DHT22;4597;48.730;9.114;2022-10-16T04:00:26;14.80;99.90
9125;DHT22;4597;48.730;9.114;2022-10-16T04:02:51;14.80;99.90
9125;DHT22;4597;48.730;9.114;2022-10-16T04:05:17;14.90;99.90
9125;DHT22;4597;48.730;9.114;2022-10-16T04:07:42;14.90;99.90
9125;DHT22;4597;48.730;9.114;2022-10-16T04:10:08;14.90;99.90
9125;DHT22;4597;48.730;9.114;2022-10-16T04:12:33;14.80;99.90
9125;DHT22;4597;48.730;9.114;2022-10-16T04:14:59;14.90;99.90
9125;DHT22;4597;48.730;9.114;2022-10-16T04:17:24;14.90;99.90
9125;DHT22;4597;48.730;9.114;2022-10-16T04:19:50;14.90;99.90
9125;DHT22;4597;48.730;9.114;2022-10-16T04:22:15;14.90;99.90
9125;DHT22;4597;48.730;9.114;2022-10-16T04:24:41;14.80;99.90
9125;DHT22;4597;48.730;9.114;2022-10-16T04:27:06;14.80;99.90
9125;DHT22;4597;48.730;9.114;2022-10-16T04:29:32;14.80;99.90
9125;DHT22;4597;48.730;9.114;2022-10-16T04:31:57;14.80;99.90
9125;DHT22;4597;48.730;9.114;2022-10-16T04:34:23;14.80;99.90
9125;DHT22;4597;48.730;9.114;2022-10-16T04:36:48;14.80;99.90
9125;DHT22;4597;48.730;9.114;2022-10-16T04:39:17;14.80;99.90
9125;DHT22;4597;48.730;9.114;2022-10-16T04:41:42;14.80;99.90
9125;DHT22;4597;48.730;9.114;2022-10-16T04:44:08;14.80;99.90
9125;DHT22;4597;48.730;9.114;2022-10-16T04:46:34;14.80;99.90
9125;DHT22;4597;48.730;9.114;2022-10-16T04:48:59;14.80;99.90
9125;DHT22;4597;48.730;9.114;2022-10-16T04:51:25;14.80;99.90
9125;DHT22;4597;48.730;9.114;2022-10-16T04:53:51;14.80;99.90
9125;DHT22;4597;48.730;9.114;2022-10-16T04:56:17;14.70;99.90
9125;DHT22;4597;48.730;9.114;2022-10-16T04:58:42;14.70;99.90
9125;DHT22;4597;48.730;9.114;2022-10-16T05:01:08;14.70;99.90
9125;DHT22;4597;48.730;9.114;2022-10-16T05:03:33;14.70;99.90
9125;DHT22;4597;48.730;9.114;2022-10-16T05:05:59;14.70;99.90
9125;DHT22;4597;48.730;9.114;2022-10-16T05:08:25;14.70;99.90
9125;DHT22;4597;48.730;9.114;2022-10-16T05:10:50;14.70;99.90
9125;DHT22;4597;48.730;9.114;2022-10-16T05:13:16;14.70;99.90
9125;DHT22;4597;48.730;9.114;2022-10-16T05:15:42;14.70;99.90
9125;DHT22;4597;48.730;9.114;2022-10-16T05:18:08;14.70;99.90
9125;DHT22;4597;48.730;9.114;2022-10-16T05:20:34;14.70;99.90
9125;DHT22;4597;48.730;9.114;2022-10-16T05:23:00;14.70;99.90
9125;DHT22;4597;48.730;9.114;2022-10-16T05:25:25;14.70;99.90
9125;DHT22;4597;48.730;9.114;2022-10-16T05:27:51;14.60;99.90
9125;DHT22;4597;48.730;9.114;2022-10-16T05:30:17;14.60;99.90
9125;DHT22;4597;48.730;9.114;2022-10-16T05:32:47;14.60;99.90
9125;DHT22;4597;48.730;9.114;2022-10-16T05:35:13;14.60;99.90
9125;DHT22;4597;48.730;9.114;2022-10-16T05:37:38;14.60;99.90
9125;DHT22;4597;48.730;9.114;2022-10-16T05:40:04;14.60;99.90
9125;DHT22;4597;48.730;9.114;2022-10-16T05:42:30;14.60;99.90
9125;DHT22;4597;48.730;9.114;2022-10-16T05:44:56;14.60;99.90
9125;DHT22;4597;48.730;9.114;2022-10-16T05:47:21;14.60;99.90
9125;DHT22;4597;48.730;9.114;2022-10-16T05:49:47;14.70;99.90
9125;DHT22;4597;48.730;9.114;2022-10-16T05:52:12;14.70;99.90
9125;DHT22;4597;48.730;9.114;2022-10-16T05:54:38;14.70;99.90
9125;DHT22;4597;48.730;9.114;2022-10-16T05:57:03;14.60;99.90
9125;DHT22;4597;48.730;9.114;2022-10-16T05:59:31;14.60;99.90
9125;DHT22;4597;48.730;9.114;2022-10-16T06:01:57;14.60;99.90
9125;DHT22;4597;48.730;9.114;2022-10-16T06:04:22;14.60;99.90
9125;DHT22;4597;48.730;9.114;2022-10-16T06:06:48;14.60;99.90
9125;DHT22;4597;48.730;9.114;2022-10-16T06:09:13;14.60;99.90
9125;DHT22;4597;48.730;9.114;2022-10-16T06:11:39;14.60;99.90
9125;DHT22;4597;48.730;9.114;2022-10-16T06:14:04;14.60;99.90
9125;DHT22;4597;48.730;9.114;2022-10-16T06:16:36;14.60;99.90
9125;DHT22;4597;48.730;9.114;2022-10-16T06:19:02;14.60;99.90
9125;DHT22;4597;48.730;9.114;2022-10-16T06:21:31;14.60;99.90
9125;DHT22;4597;48.730;9.114;2022-10-16T06:23:57;14.60;99.90
9125;DHT22;4597;48.730;9.114;2022-10-16T06:26:25;14.60;99.90
9125;DHT22;4597;48.730;9.114;2022-10-16T06:28:51;14.60;99.90
9125;DHT22;4597;48.730;9.114;2022-10-16T06:31:17;14.70;99.90
9125;DHT22;4597;48.730;9.114;2022-10-16T06:33:43;14.70;99.90
9125;DHT22;4597;48.730;9.114;2022-10-16T06:36:15;14.70;99.90
9125;DHT22;4597;48.730;9.114;2022-10-16T06:38:42;14.70;99.90
9125;DHT22;4597;48.730;9.114;2022-10-16T06:41:13;14.70;99.90
9125;DHT22;4597;48.730;9.114;2022-10-16T06:43:40;14.80;99.90
9125;DHT22;4597;48.730;9.114;2022-10-16T06:46:07;14.80;99.90
9125;DHT22;4597;48.730;9.114;2022-10-16T06:48:33;14.80;99.90
9125;DHT22;4597;48.730;9.114;2022-10-16T06:51:03;14.90;99.90
9125;DHT22;4597;48.730;9.114;2022-10-16T06:53:32;14.90;99.90
9125;DHT22;4597;48.730;9.114;2022-10-16T06:56:01;15.00;99.90
9125;DHT22;4597;48.730;9.114;2022-10-16T06:58:31;15.00;99.90
9125;DHT22;4597;48.730;9.114;2022-10-16T07:00:56;15.00;99.90
9125;DHT22;4597;48.730;9.114;2022-10-16T07:03:22;15.00;99.90
9125;DHT22;4597;48.730;9.114;2022-10-16T07:05:48;15.00;99.90
9125;DHT22;4597;48.730;9.114;2022-10-16T07:08:13;15.10;99.90
9125;DHT22;4597;48.730;9.114;2022-10-16T07:10:39;15.10;99.90
9125;DHT22;4597;48.730;9.114;2022-10-16T07:13:04;15.10;99.90
9125;DHT22;4597;48.730;9.114;2022-10-16T07:15:30;15.10;99.90
9125;DHT22;4597;48.730;9.114;2022-10-16T07:17:56;15.20;99.90
9125;DHT22;4597;48.730;9.114;2022-10-16T07:20:21;15.20;99.90
9125;DHT22;4597;48.730;9.114;2022-10-16T07:22:47;15.20;99.90
9125;DHT22;4597;48.730;9.114;2022-10-16T07:25:12;15.30;99.90
9125;DHT22;4597;48.730;9.114;2022-10-16T07:27:38;15.20;99.90
9125;DHT22;4597;48.730;9.114;2022-10-16T07:30:04;15.30;99.90
9125;DHT22;4597;48.730;9.114;2022-10-16T07:32:31;15.30;99.90
9125;DHT22;4597;48.730;9.114;2022-10-16T07:34:56;15.30;99.90
9125;DHT22;4597;48.730;9.114;2022-10-16T07:37:22;15.40;99.90
9125;DHT22;4597;48.730;9.114;2022-10-16T07:39:47;15.50;99.90
9125;DHT22;4597;48.730;9.114;2022-10-16T07:42:13;15.50;99.90
9125;DHT22;4597;48.730;9.114;2022-10-16T07:44:39;15.60;99.90
9125;DHT22;4597;48.730;9.114;2022-10-16T07:47:05;15.80;99.90
9125;DHT22;4597;48.730;9.114;2022-10-16T07:49:30;16.00;99.90
9125;DHT22;4597;48.730;9.114;2022-10-16T07:51:56;16.20;99.90
9125;DHT22;4597;48.730;9.114;2022-10-16T07:54:22;16.30;99.90
9125;DHT22;4597;48.730;9.114;2022-10-16T07:56:47;16.40;99.90
9125;DHT22;4597;48.730;9.114;2022-10-16T07:59:13;16.60;99.90
9125;DHT22;4597;48.730;9.114;2022-10-16T08:01:39;16.70;99.90
9125;DHT22;4597;48.730;9.114;2022-10-16T08:04:05;16.70;99.90
9125;DHT22;4597;48.730;9.114;2022-10-16T08:06:36;16.80;99.90
9125;DHT22;4597;48.730;9.114;2022-10-16T08:09:02;16.90;99.90
9125;DHT22;4597;48.730;9.114;2022-10-16T08:11:28;16.90;99.90
9125;DHT22;4597;48.730;9.114;2022-10-16T08:13:53;17.00;99.90
9125;DHT22;4597;48.730;9.114;2022-10-16T08:16:19;17.10;99.90
9125;DHT22;4597;48.730;9.114;2022-10-16T08:18:45;17.10;99.90
9125;DHT22;4597;48.730;9.114;2022-10-16T08:21:16;17.20;99.90
9125;DHT22;4597;48.730;9.114;2022-10-16T08:23:42;17.30;99.90
9125;DHT22;4597;48.730;9.114;2022-10-16T08:26:09;17.30;99.90
9125;DHT22;4597;48.730;9.114;2022-10-16T08:28:35;17.40;99.90
9125;DHT22;4597;48.730;9.114;2022-10-16T08:31:06;17.40;99.90
9125;DHT22;4597;48.730;9.114;2022-10-16T08:33:31;17.40;99.90
9125;DHT22;4597;48.730;9.114;2022-10-16T08:35:57;17.40;99.90
9125;DHT22;4597;48.730;9.114;2022-10-16T08:38:22;17.40;99.90
9125;DHT22;4597;48.730;9.114;2022-10-16T08:40:48;17.40;99.90
9125;DHT22;4597;48.730;9.114;2022-10-16T08:48:51;17.50;99.90
9125;DHT22;4597;48.730;9.114;2022-10-16T08:51:21;17.50;99.90
9125;DHT22;4597;48.730;9.114;2022-10-16T08:53:56;17.60;99.90
9125;DHT22;4597;48.730;9.114;2022-10-16T08:56:23;17.60;99.90
9125;DHT22;4597;48.730;9.114;2022-10-16T08:58:49;17.70;99.90
9125;DHT22;4597;48.730;9.114;2022-10-16T09:01:19;17.80;99.90
9125;DHT22;4597;48.730;9.114;2022-10-16T09:06:47;17.90;99.90
9125;DHT22;4597;48.730;9.114;2022-10-16T09:14:52;18.00;99.90
9125;DHT22;4597;48.730;9.114;2022-10-16T09:17:42;18.00;99.90
9125;DHT22;4597;48.730;9.114;2022-10-16T09:25:30;17.90;99.90
9125;DHT22;4597;48.730;9.114;2022-10-16T09:27:56;18.10;99.90
9125;DHT22;4597;48.730;9.114;2022-10-16T09:30:22;18.20;99.90
9125;DHT22;4597;48.730;9.114;2022-10-16T09:32:52;18.30;99.90
9125;DHT22;4597;48.730;9.114;2022-10-16T09:38:03;18.50;99.90
9125;DHT22;4597;48.730;9.114;2022-10-16T09:40:39;18.60;99.90
9125;DHT22;4597;48.730;9.114;2022-10-16T09:43:46;18.70;99.90
9125;DHT22;4597;48.730;9.114;2022-10-16T09:46:32;18.80;99.90
9125;DHT22;4597;48.730;9.114;2022-10-16T09:49:04;18.90;99.90
9125;DHT22;4597;48.730;9.114;2022-10-16T09:51:32;19.00;99.90
9125;DHT22;4597;48.730;9.114;2022-10-16T09:54:01;19.10;99.90
9125;DHT22;4597;48.730;9.114;2022-10-16T09:56:29;19.30;99.90
9125;DHT22;4597;48.730;9.114;2022-10-16T09:59:01;19.40;99.90
9125;DHT22;4597;48.730;9.114;2022-10-16T10:01:36;19.40;99.90
9125;DHT22;4597;48.730;9.114;2022-10-16T10:04:03;19.60;99.90
9125;DHT22;4597;48.730;9.114;2022-10-16T10:06:33;19.70;99.90
9125;DHT22;4597;48.730;9.114;2022-10-16T10:14:43;20.00;99.90
9125;DHT22;4597;48.730;9.114;2022-10-16T10:17:14;20.00;99.90
9125;DHT22;4597;48.730;9.114;2022-10-16T10:19:49;19.80;99.90
9125;DHT22;4597;48.730;9.114;2022-10-16T10:22:22;19.70;99.90
9125;DHT22;4597;48.730;9.114;2022-10-16T10:28:06;19.70;99.90
9125;DHT22;4597;48.730;9.114;2022-10-16T10:30:48;19.80;99.90
9125;DHT22;4597;48.730;9.114;2022-10-16T10:33:34;20.00;99.90
9125;DHT22;4597;48.730;9.114;2022-10-16T10:38:51;20.30;99.90
9125;DHT22;4597;48.730;9.114;2022-10-16T10:44:03;20.40;99.90
9125;DHT22;4597;48.730;9.114;2022-10-16T10:46:42;20.40;99.90
9125;DHT22;4597;48.730;9.114;2022-10-16T10:52:24;20.40;99.90
9125;DHT22;4597;48.730;9.114;2022-10-16T10:55:33;20.40;99.90
9125;DHT22;4597;48.730;9.114;2022-10-16T10:58:27;20.30;99.90
9125;DHT22;4597;48.730;9.114;2022-10-16T11:01:16;20.20;99.90
9125;DHT22;4597;48.730;9.114;2022-10-16T11:06:16;20.10;99.90
9125;DHT22;4597;48.730;9.114;2022-10-16T11:09:10;20.20;99.90
9125;DHT22;4597;48.730;9.114;2022-10-16T11:11:44;20.20;99.90
9125;DHT22;4597;48.730;9.114;2022-10-16T11:14:21;20.30;99.90
9125;DHT22;4597;48.730;9.114;2022-10-16T11:24:53;20.80;99.90
9125;DHT22;4597;48.730;9.114;2022-10-16T11:27:33;21.00;99.90
9125;DHT22;4597;48.730;9.114;2022-10-16T11:30:02;21.20;99.90
9125;DHT22;4597;48.730;9.114;2022-10-16T11:32:49;21.40;99.90
9125;DHT22;4597;48.730;9.114;2022-10-16T11:35:30;21.50;99.90
9125;DHT22;4597;48.730;9.114;2022-10-16T11:37:59;21.70;99.90
9125;DHT22;4597;48.730;9.114;2022-10-16T11:40:38;21.80;99.90
9125;DHT22;4597;48.730;9.114;2022-10-16T11:45:54;21.90;99.90
9125;DHT22;4597;48.730;9.114;2022-10-16T11:51:24;22.10;99.90
9125;DHT22;4597;48.730;9.114;2022-10-16T11:56:37;22.30;99.90
9125;DHT22;4597;48.730;9.114;2022-10-16T12:02:33;22.40;99.90
9125;DHT22;4597;48.730;9.114;2022-10-16T12:04:47;22.50;99.90
9125;DHT22;4597;48.730;9.114;2022-10-16T12:07:16;22.50;99.90
9125;DHT22;4597;48.730;9.114;2022-10-16T12:09:43;22.50;99.90
9125;DHT22;4597;48.730;9.114;2022-10-16T12:12:37;22.50;99.90
9125;DHT22;4597;48.730;9.114;2022-10-16T12:15:23;22.50;99.90
9125;DHT22;4597;48.730;9.114;2022-10-16T12:17:50;22.50;99.90
9125;DHT22;4597;48.730;9.114;2022-10-16T12:20:21;22.60;99.90
9125;DHT22;4597;48.730;9.114;2022-10-16T12:22:57;22.60;99.90
9125;DHT22;4597;48.730;9.114;2022-10-16T12:25:37;22.60;99.90
9125;DHT22;4597;48.730;9.114;2022-10-16T12:28:25;22.60;99.90
9125;DHT22;4597;48.730;9.114;2022-10-16T12:31:02;22.70;99.90
9125;DHT22;4597;48.730;9.114;2022-10-16T12:33:37;22.80;99.90
9125;DHT22;4597;48.730;9.114;2022-10-16T12:36:13;22.80;99.90
9125;DHT22;4597;48.730;9.114;2022-10-16T12:38:50;22.70;99.90
9125;DHT22;4597;48.730;9.114;2022-10-16T12:41:32;22.70;99.90
9125;DHT22;4597;48.730;9.114;2022-10-16T12:43:58;22.80;99.90
9125;DHT22;4597;48.730;9.114;2022-10-16T12:51:40;23.20;99.90
9125;DHT22;4597;48.730;9.114;2022-10-16T13:00:13;22.80;99.90
9125;DHT22;4597;48.730;9.114;2022-10-16T13:05:58;22.40;99.90
9125;DHT22;4597;48.730;9.114;2022-10-16T13:14:19;22.00;99.90
9125;DHT22;4597;48.730;9.114;2022-10-16T13:19:43;21.90;99.90
9125;DHT22;4597;48.730;9.114;2022-10-16T13:22:22;21.90;99.90
9125;DHT22;4597;48.730;9.114;2022-10-16T13:25:09;21.80;99.90
9125;DHT22;4597;48.730;9.114;2022-10-16T13:30:41;22.00;99.90
9125;DHT22;4597;48.730;9.114;2022-10-16T13:33:14;22.50;99.90
9125;DHT22;4597;48.730;9.114;2022-10-16T13:35:48;23.00;99.90
9125;DHT22;4597;48.730;9.114;2022-10-16T13:43:14;24.00;99.90
9125;DHT22;4597;48.730;9.114;2022-10-16T13:45:41;24.00;99.90
9125;DHT22;4597;48.730;9.114;2022-10-16T13:48:09;24.20;99.90
9125;DHT22;4597;48.730;9.114;2022-10-16T13:50:37;24.20;99.90
9125;DHT22;4597;48.730;9.114;2022-10-16T13:53:09;24.10;99.90
9125;DHT22;4597;48.730;9.114;2022-10-16T13:55:37;24.10;99.90
9125;DHT22;4597;48.730;9.114;2022-10-16T13:58:13;24.00;99.90
9125;DHT22;4597;48.730;9.114;2022-10-16T14:00:40;23.90;99.90
9125;DHT22;4597;48.730;9.114;2022-10-16T14:03:16;23.70;99.90
9125;DHT22;4597;48.730;9.114;2022-10-16T14:05:51;23.40;99.90
9125;DHT22;4597;48.730;9.114;2022-10-16T14:08:17;23.30;99.90
9125;DHT22;4597;48.730;9.114;2022-10-16T14:10:46;23.20;99.90
9125;DHT22;4597;48.730;9.114;2022-10-16T14:13:17;23.10;99.90
9125;DHT22;4597;48.730;9.114;2022-10-16T14:15:47;23.00;99.90
9125;DHT22;4597;48.730;9.114;2022-10-16T14:18:20;22.80;99.90
9125;DHT22;4597;48.730;9.114;2022-10-16T14:20:46;22.70;99.90
9125;DHT22;4597;48.730;9.114;2022-10-16T14:23:33;22.60;99.90
9125;DHT22;4597;48.730;9.114;2022-10-16T14:28:36;22.30;99.90
9125;DHT22;4597;48.730;9.114;2022-10-16T14:31:16;22.30;99.90
9125;DHT22;4597;48.730;9.114;2022-10-16T14:33:46;22.20;99.90
9125;DHT22;4597;48.730;9.114;2022-10-16T14:36:14;22.10;99.90
9125;DHT22;4597;48.730;9.114;2022-10-16T14:39:34;22.10;99.90
9125;DHT22;4597;48.730;9.114;2022-10-16T14:41:43;22.10;99.90
9125;DHT22;4597;48.730;9.114;2022-10-16T14:44:10;22.10;99.90
9125;DHT22;4597;48.730;9.114;2022-10-16T14:46:38;22.00;99.90
9125;DHT22;4597;48.730;9.114;2022-10-16T14:51:37;22.30;99.90
9125;DHT22;4597;48.730;9.114;2022-10-16T14:54:03;22.90;99.90
9125;DHT22;4597;48.730;9.114;2022-10-16T14:56:52;23.40;99.90
9125;DHT22;4597;48.730;9.114;2022-10-16T14:59:39;23.90;99.90
9125;DHT22;4597;48.730;9.114;2022-10-16T15:02:26;24.70;99.90
9125;DHT22;4597;48.730;9.114;2022-10-16T15:04:52;25.50;99.90
9125;DHT22;4597;48.730;9.114;2022-10-16T15:07:18;26.00;99.90
9125;DHT22;4597;48.730;9.114;2022-10-16T15:09:43;26.10;99.90
9125;DHT22;4597;48.730;9.114;2022-10-16T15:12:09;26.30;99.90
9125;DHT22;4597;48.730;9.114;2022-10-16T15:14:35;26.20;99.90
9125;DHT22;4597;48.730;9.114;2022-10-16T15:17:00;25.70;99.90
9125;DHT22;4597;48.730;9.114;2022-10-16T15:19:26;25.20;99.90
9125;DHT22;4597;48.730;9.114;2022-10-16T15:21:51;24.70;99.90
9125;DHT22;4597;48.730;9.114;2022-10-16T15:24:17;24.20;99.90
9125;DHT22;4597;48.730;9.114;2022-10-16T15:26:43;23.80;99.90
9125;DHT22;4597;48.730;9.114;2022-10-16T15:29:11;23.60;99.90
9125;DHT22;4597;48.730;9.114;2022-10-16T15:31:37;24.00;99.90
9125;DHT22;4597;48.730;9.114;2022-10-16T15:34:03;24.70;99.90
9125;DHT22;4597;48.730;9.114;2022-10-16T15:36:33;25.90;99.90
9125;DHT22;4597;48.730;9.114;2022-10-16T15:39:02;27.30;99.90
9125;DHT22;4597;48.730;9.114;2022-10-16T15:41:28;28.10;99.90
9125;DHT22;4597;48.730;9.114;2022-10-16T15:43:53;28.50;99.90
9125;DHT22;4597;48.730;9.114;2022-10-16T15:46:21;28.70;98.00
9125;DHT22;4597;48.730;9.114;2022-10-16T15:48:48;28.60;97.60
9125;DHT22;4597;48.730;9.114;2022-10-16T15:51:14;28.00;96.70
9125;DHT22;4597;48.730;9.114;2022-10-16T15:53:39;27.40;98.10
9125;DHT22;4597;48.730;9.114;2022-10-16T15:56:06;26.70;99.90
9125;DHT22;4597;48.730;9.114;2022-10-16T15:58:32;26.00;99.90
9125;DHT22;4597;48.730;9.114;2022-10-16T16:00:58;25.30;99.90
9125;DHT22;4597;48.730;9.114;2022-10-16T16:03:26;24.70;99.90
9125;DHT22;4597;48.730;9.114;2022-10-16T16:05:52;24.20;99.90
9125;DHT22;4597;48.730;9.114;2022-10-16T16:08:18;23.80;99.90
9125;DHT22;4597;48.730;9.114;2022-10-16T16:10:43;23.40;99.90
9125;DHT22;4597;48.730;9.114;2022-10-16T16:13:09;23.00;99.90
9125;DHT22;4597;48.730;9.114;2022-10-16T16:15:38;22.80;99.90
9125;DHT22;4597;48.730;9.114;2022-10-16T16:18:04;22.50;99.90
9125;DHT22;4597;48.730;9.114;2022-10-16T16:20:31;22.20;99.90
9125;DHT22;4597;48.730;9.114;2022-10-16T16:22:56;22.00;99.90
9125;DHT22;4597;48.730;9.114;2022-10-16T16:25:22;21.80;99.90
9125;DHT22;4597;48.730;9.114;2022-10-16T16:27:47;21.50;99.90
9125;DHT22;4597;48.730;9.114;2022-10-16T16:30:13;21.30;99.90
9125;DHT22;4597;48.730;9.114;2022-10-16T16:32:39;21.00;99.90
9125;DHT22;4597;48.730;9.114;2022-10-16T16:35:05;20.80;99.90
9125;DHT22;4597;48.730;9.114;2022-10-16T16:37:31;20.60;99.90
9125;DHT22;4597;48.730;9.114;2022-10-16T16:39:56;20.50;99.90
9125;DHT22;4597;48.730;9.114;2022-10-16T16:42:24;20.30;99.90
9125;DHT22;4597;48.730;9.114;2022-10-16T16:44:50;20.10;99.90
9125;DHT22;4597;48.730;9.114;2022-10-16T16:47:16;19.90;99.90
9125;DHT22;4597;48.730;9.114;2022-10-16T16:49:41;19.80;99.90
9125;DHT22;4597;48.730;9.114;2022-10-16T16:52:07;19.60;99.90
9125;DHT22;4597;48.730;9.114;2022-10-16T16:54:32;19.50;99.90
9125;DHT22;4597;48.730;9.114;2022-10-16T16:56:58;19.40;99.90
9125;DHT22;4597;48.730;9.114;2022-10-16T16:59:24;19.20;99.90
9125;DHT22;4597;48.730;9.114;2022-10-16T17:01:49;19.10;99.90
9125;DHT22;4597;48.730;9.114;2022-10-16T17:04:15;19.00;99.90
9125;DHT22;4597;48.730;9.114;2022-10-16T17:06:41;19.00;99.90
9125;DHT22;4597;48.730;9.114;2022-10-16T17:09:08;19.00;99.90
9125;DHT22;4597;48.730;9.114;2022-10-16T17:11:35;18.90;99.90
9125;DHT22;4597;48.730;9.114;2022-10-16T17:14:01;18.80;99.90
9125;DHT22;4597;48.730;9.114;2022-10-16T17:16:32;18.70;99.90
9125;DHT22;4597;48.730;9.114;2022-10-16T17:19:01;18.60;99.90
9125;DHT22;4597;48.730;9.114;2022-10-16T17:21:26;18.60;99.90
9125;DHT22;4597;48.730;9.114;2022-10-16T17:23:55;18.50;99.90
9125;DHT22;4597;48.730;9.114;2022-10-16T17:26:21;18.40;99.90
9125;DHT22;4597;48.730;9.114;2022-10-16T17:28:51;18.40;99.90
9125;DHT22;4597;48.730;9.114;2022-10-16T17:31:19;18.40;99.90
9125;DHT22;4597;48.730;9.114;2022-10-16T17:33:45;18.30;99.90
9125;DHT22;4597;48.730;9.114;2022-10-16T17:36:12;18.30;99.90
9125;DHT22;4597;48.730;9.114;2022-10-16T17:38:39;18.20;99.90
9125;DHT22;4597;48.730;9.114;2022-10-16T17:41:13;18.10;99.90
9125;DHT22;4597;48.730;9.114;2022-10-16T17:43:39;18.10;99.90
9125;DHT22;4597;48.730;9.114;2022-10-16T17:46:06;18.10;99.90
9125;DHT22;4597;48.730;9.114;2022-10-16T17:48:36;18.00;99.90
9125;DHT22;4597;48.730;9.114;2022-10-16T17:51:06;18.00;99.90
9125;DHT22;4597;48.730;9.114;2022-10-16T17:53:33;17.90;99.90
9125;DHT22;4597;48.730;9.114;2022-10-16T17:56:07;17.90;99.90
9125;DHT22;4597;48.730;9.114;2022-10-16T17:58:34;17.90;99.90